sensor_id;sensor_type;location;lat;lon;timestamp;P1;durP1;ratioP1;P2;durP2;ratioP2
61295;SDS011;47168;48.104;20.730;2022-07-17T00:00:04;8.52;;;4.80;;
61295;SDS011;47168;48.104;20.730;2022-07-17T00:02:36;9.70;;;5.30;;
61295;SDS011;47168;48.104;20.730;2022-07-17T00:05:05;9.82;;;5.13;;
61295;SDS011;47168;48.104;20.730;2022-07-17T00:07:34;10.50;;;5.72;;
61295;SDS011;47168;48.104;20.730;2022-07-17T00:10:02;9.68;;;5.55;;
61295;SDS011;47168;48.104;20.730;2022-07-17T00:12:36;10.10;;;5.60;;
61295;SDS011;47168;48.104;20.730;2022-07-17T00:15:05;10.63;;;5.68;;
61295;SDS011;47168;48.104;20.730;2022-07-17T00:17:36;9.43;;;5.22;;
61295;SDS011;47168;48.104;20.730;2022-07-17T00:22:40;10.25;;;5.57;;
61295;SDS011;47168;48.104;20.730;2022-07-17T00:25:13;9.65;;;5.57;;
61295;SDS011;47168;48.104;20.730;2022-07-17T00:27:41;9.65;;;5.38;;
61295;SDS011;47168;48.104;20.730;2022-07-17T00:30:12;8.88;;;5.25;;
61295;SDS011;47168;48.104;20.730;2022-07-17T00:32:42;9.20;;;5.20;;
61295;SDS011;47168;48.104;20.730;2022-07-17T00:35:22;9.88;;;5.65;;
61295;SDS011;47168;48.104;20.730;2022-07-17T00:37:53;9.97;;;5.43;;
61295;SDS011;47168;48.104;20.730;2022-07-17T00:40:23;10.25;;;5.25;;
61295;SDS011;47168;48.104;20.730;2022-07-17T00:43:04;12.68;;;5.55;;
61295;SDS011;47168;48.104;20.730;2022-07-17T00:45:42;10.50;;;5.90;;
61295;SDS011;47168;48.104;20.730;2022-07-17T00:48:11;11.73;;;6.23;;
61295;SDS011;47168;48.104;20.730;2022-07-17T00:50:41;9.70;;;5.63;;
61295;SDS011;47168;48.104;20.730;2022-07-17T00:53:14;12.07;;;5.45;;
61295;SDS011;47168;48.104;20.730;2022-07-17T00:55:45;11.18;;;6.18;;
61295;SDS011;47168;48.104;20.730;2022-07-17T00:58:19;10.20;;;6.35;;
61295;SDS011;47168;48.104;20.730;2022-07-17T01:00:50;10.10;;;5.43;;
61295;SDS011;47168;48.104;20.730;2022-07-17T01:03:24;10.32;;;5.97;;
61295;SDS011;47168;48.104;20.730;2022-07-17T01:05:52;10.50;;;5.50;;
61295;SDS011;47168;48.104;20.730;2022-07-17T01:08:23;3.53;;;1.88;;
61295;SDS011;47168;48.104;20.730;2022-07-17T01:10:51;10.18;;;5.40;;
61295;SDS011;47168;48.104;20.730;2022-07-17T01:13:21;8.32;;;4.68;;
61295;SDS011;47168;48.104;20.730;2022-07-17T01:15:49;9.88;;;5.28;;
61295;SDS011;47168;48.104;20.730;2022-07-17T01:18:22;9.60;;;5.25;;
61295;SDS011;47168;48.104;20.730;2022-07-17T01:21:11;9.70;;;5.10;;
61295;SDS011;47168;48.104;20.730;2022-07-17T01:23:44;8.55;;;4.35;;
61295;SDS011;47168;48.104;20.730;2022-07-17T01:26:16;12.43;;;4.82;;
61295;SDS011;47168;48.104;20.730;2022-07-17T01:28:44;8.30;;;5.00;;
61295;SDS011;47168;48.104;20.730;2022-07-17T01:31:20;8.88;;;4.53;;
61295;SDS011;47168;48.104;20.730;2022-07-17T01:36:23;13.88;;;5.28;;
61295;SDS011;47168;48.104;20.730;2022-07-17T01:38:52;9.27;;;4.90;;
61295;SDS011;47168;48.104;20.730;2022-07-17T01:41:24;8.80;;;4.43;;
61295;SDS011;47168;48.104;20.730;2022-07-17T01:43:54;8.57;;;4.50;;
61295;SDS011;47168;48.104;20.730;2022-07-17T01:46:25;11.35;;;4.65;;
61295;SDS011;47168;48.104;20.730;2022-07-17T01:48:55;9.85;;;4.13;;
61295;SDS011;47168;48.104;20.730;2022-07-17T01:51:23;9.55;;;4.30;;
61295;SDS011;47168;48.104;20.730;2022-07-17T01:54:03;1.48;;;0.75;;
61295;SDS011;47168;48.104;20.730;2022-07-17T01:56:36;9.57;;;4.75;;
61295;SDS011;47168;48.104;20.730;2022-07-17T01:59:08;9.07;;;4.20;;
61295;SDS011;47168;48.104;20.730;2022-07-17T02:01:42;8.45;;;4.05;;
61295;SDS011;47168;48.104;20.730;2022-07-17T02:04:15;8.15;;;4.32;;
61295;SDS011;47168;48.104;20.730;2022-07-17T02:06:45;8.70;;;4.18;;
61295;SDS011;47168;48.104;20.730;2022-07-17T02:09:25;7.63;;;3.80;;
61295;SDS011;47168;48.104;20.730;2022-07-17T02:12:03;9.10;;;4.07;;
61295;SDS011;47168;48.104;20.730;2022-07-17T02:14:33;8.15;;;4.38;;
61295;SDS011;47168;48.104;20.730;2022-07-17T02:17:10;8.20;;;3.40;;
61295;SDS011;47168;48.104;20.730;2022-07-17T02:19:46;7.80;;;4.30;;
61295;SDS011;47168;48.104;20.730;2022-07-17T02:22:15;8.18;;;4.13;;
61295;SDS011;47168;48.104;20.730;2022-07-17T02:24:42;8.75;;;4.18;;
61295;SDS011;47168;48.104;20.730;2022-07-17T02:27:14;3.00;;;0.75;;
61295;SDS011;47168;48.104;20.730;2022-07-17T02:29:41;8.52;;;4.32;;
61295;SDS011;47168;48.104;20.730;2022-07-17T02:32:10;8.20;;;4.25;;
61295;SDS011;47168;48.104;20.730;2022-07-17T02:34:38;1.15;;;0.65;;
61295;SDS011;47168;48.104;20.730;2022-07-17T02:37:06;8.90;;;4.05;;
61295;SDS011;47168;48.104;20.730;2022-07-17T02:39:36;10.20;;;3.95;;
61295;SDS011;47168;48.104;20.730;2022-07-17T02:42:25;1.27;;;0.65;;
61295;SDS011;47168;48.104;20.730;2022-07-17T02:44:58;9.07;;;4.15;;
61295;SDS011;47168;48.104;20.730;2022-07-17T02:47:30;1.02;;;0.57;;
61295;SDS011;47168;48.104;20.730;2022-07-17T02:50:12;8.30;;;3.88;;
61295;SDS011;47168;48.104;20.730;2022-07-17T02:52:40;7.45;;;3.72;;
61295;SDS011;47168;48.104;20.730;2022-07-17T02:55:13;23.40;;;2.20;;
61295;SDS011;47168;48.104;20.730;2022-07-17T02:57:45;9.40;;;4.20;;
61295;SDS011;47168;48.104;20.730;2022-07-17T03:00:22;7.55;;;3.53;;
61295;SDS011;47168;48.104;20.730;2022-07-17T03:02:53;9.43;;;4.13;;
61295;SDS011;47168;48.104;20.730;2022-07-17T03:05:25;1.40;;;1.02;;
61295;SDS011;47168;48.104;20.730;2022-07-17T03:07:57;7.50;;;3.33;;
61295;SDS011;47168;48.104;20.730;2022-07-17T03:10:30;1.70;;;0.88;;
61295;SDS011;47168;48.104;20.730;2022-07-17T03:13:06;0.82;;;0.40;;
61295;SDS011;47168;48.104;20.730;2022-07-17T03:15:35;8.00;;;3.75;;
61295;SDS011;47168;48.104;20.730;2022-07-17T03:18:04;1.40;;;0.65;;
61295;SDS011;47168;48.104;20.730;2022-07-17T03:20:35;7.38;;;3.85;;
61295;SDS011;47168;48.104;20.730;2022-07-17T03:23:11;1.88;;;0.85;;
61295;SDS011;47168;48.104;20.730;2022-07-17T03:25:40;1.67;;;1.17;;
61295;SDS011;47168;48.104;20.730;2022-07-17T03:28:10;2.97;;;0.85;;
61295;SDS011;47168;48.104;20.730;2022-07-17T03:30:43;7.78;;;4.03;;
61295;SDS011;47168;48.104;20.730;2022-07-17T03:33:15;7.05;;;3.63;;
61295;SDS011;47168;48.104;20.730;2022-07-17T03:35:44;1.23;;;0.73;;
61295;SDS011;47168;48.104;20.730;2022-07-17T03:38:15;0.93;;;0.63;;
61295;SDS011;47168;48.104;20.730;2022-07-17T03:40:48;7.38;;;3.50;;
61295;SDS011;47168;48.104;20.730;2022-07-17T03:43:17;7.78;;;3.83;;
61295;SDS011;47168;48.104;20.730;2022-07-17T03:45:52;8.07;;;4.03;;
61295;SDS011;47168;48.104;20.730;2022-07-17T03:48:18;0.25;;;0.20;;
61295;SDS011;47168;48.104;20.730;2022-07-17T03:50:52;1.17;;;0.60;;
61295;SDS011;47168;48.104;20.730;2022-07-17T03:53:20;1.85;;;0.43;;
61295;SDS011;47168;48.104;20.730;2022-07-17T03:55:45;7.47;;;3.83;;
61295;SDS011;47168;48.104;20.730;2022-07-17T03:58:17;1.58;;;0.85;;
61295;SDS011;47168;48.104;20.730;2022-07-17T04:00:50;9.52;;;4.30;;
61295;SDS011;47168;48.104;20.730;2022-07-17T04:03:23;1.45;;;0.77;;
61295;SDS011;47168;48.104;20.730;2022-07-17T04:05:54;7.25;;;3.92;;
61295;SDS011;47168;48.104;20.730;2022-07-17T04:08:29;7.40;;;3.92;;
61295;SDS011;47168;48.104;20.730;2022-07-17T04:10:57;1.80;;;0.60;;
61295;SDS011;47168;48.104;20.730;2022-07-17T04:13:26;7.07;;;3.60;;
61295;SDS011;47168;48.104;20.730;2022-07-17T04:15:57;6.68;;;3.28;;
61295;SDS011;47168;48.104;20.730;2022-07-17T04:18:28;1.77;;;0.82;;
61295;SDS011;47168;48.104;20.730;2022-07-17T04:21:09;7.00;;;3.30;;
61295;SDS011;47168;48.104;20.730;2022-07-17T04:23:37;7.25;;;2.92;;
61295;SDS011;47168;48.104;20.730;2022-07-17T04:26:26;7.20;;;3.00;;
61295;SDS011;47168;48.104;20.730;2022-07-17T04:28:54;6.65;;;2.90;;
61295;SDS011;47168;48.104;20.730;2022-07-17T04:31:26;6.55;;;2.83;;
61295;SDS011;47168;48.104;20.730;2022-07-17T04:33:58;5.05;;;2.30;;
61295;SDS011;47168;48.104;20.730;2022-07-17T04:36:40;5.20;;;2.42;;
61295;SDS011;47168;48.104;20.730;2022-07-17T04:39:10;5.85;;;2.30;;
61295;SDS011;47168;48.104;20.730;2022-07-17T04:41:40;5.97;;;2.50;;
61295;SDS011;47168;48.104;20.730;2022-07-17T04:44:12;6.45;;;2.53;;
61295;SDS011;47168;48.104;20.730;2022-07-17T04:46:54;6.95;;;2.30;;
61295;SDS011;47168;48.104;20.730;2022-07-17T04:49:32;5.15;;;2.50;;
61295;SDS011;47168;48.104;20.730;2022-07-17T04:51:59;6.95;;;2.55;;
61295;SDS011;47168;48.104;20.730;2022-07-17T04:54:33;5.70;;;2.40;;
61295;SDS011;47168;48.104;20.730;2022-07-17T04:57:03;5.95;;;2.83;;
61295;SDS011;47168;48.104;20.730;2022-07-17T04:59:30;6.55;;;2.60;;
61295;SDS011;47168;48.104;20.730;2022-07-17T05:01:57;5.88;;;2.40;;
61295;SDS011;47168;48.104;20.730;2022-07-17T05:04:25;5.05;;;2.38;;
61295;SDS011;47168;48.104;20.730;2022-07-17T05:06:57;5.25;;;2.30;;
61295;SDS011;47168;48.104;20.730;2022-07-17T05:09:26;5.43;;;1.95;;
61295;SDS011;47168;48.104;20.730;2022-07-17T05:11:52;4.10;;;1.88;;
61295;SDS011;47168;48.104;20.730;2022-07-17T05:14:25;4.78;;;1.98;;
61295;SDS011;47168;48.104;20.730;2022-07-17T05:16:53;6.25;;;1.75;;
61295;SDS011;47168;48.104;20.730;2022-07-17T05:19:21;3.88;;;1.80;;
61295;SDS011;47168;48.104;20.730;2022-07-17T05:21:49;3.28;;;1.40;;
61295;SDS011;47168;48.104;20.730;2022-07-17T05:24:18;5.15;;;1.88;;
61295;SDS011;47168;48.104;20.730;2022-07-17T05:26:47;3.67;;;1.58;;
61295;SDS011;47168;48.104;20.730;2022-07-17T05:29:17;4.32;;;1.60;;
61295;SDS011;47168;48.104;20.730;2022-07-17T05:32:06;4.63;;;1.42;;
61295;SDS011;47168;48.104;20.730;2022-07-17T05:34:40;2.50;;;1.20;;
61295;SDS011;47168;48.104;20.730;2022-07-17T05:37:06;3.70;;;1.38;;
61295;SDS011;47168;48.104;20.730;2022-07-17T05:39:35;2.85;;;1.27;;
61295;SDS011;47168;48.104;20.730;2022-07-17T05:42:07;3.42;;;1.35;;
61295;SDS011;47168;48.104;20.730;2022-07-17T05:44:59;6.13;;;1.23;;
61295;SDS011;47168;48.104;20.730;2022-07-17T05:47:36;2.95;;;1.20;;
61295;SDS011;47168;48.104;20.730;2022-07-17T05:50:16;4.43;;;1.33;;
61295;SDS011;47168;48.104;20.730;2022-07-17T05:52:53;3.45;;;1.35;;
61295;SDS011;47168;48.104;20.730;2022-07-17T05:55:25;3.63;;;1.50;;
61295;SDS011;47168;48.104;20.730;2022-07-17T05:57:54;4.20;;;1.30;;
61295;SDS011;47168;48.104;20.730;2022-07-17T06:00:27;3.45;;;1.38;;
61295;SDS011;47168;48.104;20.730;2022-07-17T06:02:56;3.30;;;1.20;;
61295;SDS011;47168;48.104;20.730;2022-07-17T06:05:29;4.22;;;1.33;;
61295;SDS011;47168;48.104;20.730;2022-07-17T06:07:58;2.65;;;1.17;;
61295;SDS011;47168;48.104;20.730;2022-07-17T06:10:34;6.18;;;1.30;;
61295;SDS011;47168;48.104;20.730;2022-07-17T06:13:04;5.03;;;1.42;;
61295;SDS011;47168;48.104;20.730;2022-07-17T06:15:30;3.67;;;1.30;;
61295;SDS011;47168;48.104;20.730;2022-07-17T06:18:02;3.33;;;1.20;;
61295;SDS011;47168;48.104;20.730;2022-07-17T06:20:31;4.70;;;1.20;;
61295;SDS011;47168;48.104;20.730;2022-07-17T06:23:02;3.42;;;1.30;;
61295;SDS011;47168;48.104;20.730;2022-07-17T06:25:31;2.03;;;0.85;;
